Time,TemperatureF,DewpointF,PressureIn,WindDirection,WindDirectionDegrees,WindSpeedMPH,WindSpeedGustMPH,Humidity,HourlyPrecipIn,Conditions,Clouds,dailyrainin,SoftwareType,DateUTC
2013-02-21 00:00:00,7.7,-14.2,0.00,North,11,0.0,0.0,35,0.00,,,0.00,VWS V13.01,2013-02-21 06:00:00,
2013-02-21 00:05:00,7.2,-14.7,0.00,North,11,0.0,0.0,35,0.00,,,0.00,VWS V13.01,2013-02-21 06:05:00,
2013-02-21 00:10:00,6.4,-15.4,0.00,North,11,0.0,0.0,35,0.00,,,0.00,VWS V13.01,2013-02-21 06:10:00,
2013-02-21 00:15:00,5.5,-16.2,0.00,North,11,0.0,0.0,35,0.00,,,0.00,VWS V13.01,2013-02-21 06:15:00,
2013-02-21 00:20:00,4.5,-17.1,0.00,North,11,0.0,0.0,35,0.00,,,0.00,VWS V13.01,2013-02-21 06:20:00,
2013-02-21 00:25:00,3.6,-18.0,0.00,North,11,0.0,0.0,35,0.00,,,0.00,VWS V13.01,2013-02-21 06:25:00,
2013-02-21 00:30:00,3.2,-18.3,0.00,North,11,0.0,0.0,35,0.00,,,0.00,VWS V13.01,2013-02-21 06:30:00,
2013-02-21 00:35:00,2.8,-18.6,0.00,North,11,0.0,0.0,35,0.00,,,0.00,VWS V13.01,2013-02-21 06:35:00,
2013-02-21 00:40:00,2.5,-18.9,0.00,North,11,0.0,0.0,35,0.00,,,0.00,VWS V13.01,2013-02-21 06:40:00,
2013-02-21 00:45:00,2.5,-18.9,0.00,North,11,0.0,0.0,35,0.00,,,0.00,VWS V13.01,2013-02-21 06:45:00,
2013-02-21 00:50:00,2.1,-19.2,0.00,North,11,0.0,0.0,35,0.00,,,0.00,VWS V13.01,2013-02-21 06:50:00,
2013-02-21 00:55:00,1.8,-19.6,0.00,North,11,0.0,0.0,35,0.00,,,0.00,VWS V13.01,2013-02-21 06:55:00,
2013-02-21 01:00:00,1.4,-19.9,0.00,North,10,0.0,0.0,35,0.00,,,0.00,VWS V13.01,2013-02-21 07:00:00,
2013-02-21 01:05:00,1.0,-20.2,0.00,North,11,0.0,0.0,35,0.00,,,0.00,VWS V13.01,2013-02-21 07:05:00,
2013-02-21 01:10:00,0.3,-20.9,0.00,North,11,0.0,0.0,35,0.00,,,0.00,VWS V13.01,2013-02-21 07:10:00,
2013-02-21 01:15:00,-0.6,-21.7,0.00,North,11,0.0,0.0,35,0.00,,,0.00,VWS V13.01,2013-02-21 07:15:00,
2013-02-21 01:20:00,-1.1,-22.1,0.00,North,10,0.0,0.0,35,0.00,,,0.00,VWS V13.01,2013-02-21 07:20:00,
2013-02-21 01:25:00,-1.3,-22.3,0.00,North,11,0.0,0.0,35,0.00,,,0.00,VWS V13.01,2013-02-21 07:25:00,
2013-02-21 01:30:00,-1.3,-22.3,0.00,North,11,0.0,0.0,35,0.00,,,0.00,VWS V13.01,2013-02-21 07:30:00,
2013-02-21 01:35:00,-1.3,-22.3,0.00,North,11,0.0,0.0,35,0.00,,,0.00,VWS V13.01,2013-02-21 07:35:00,
2013-02-21 01:40:00,-1.3,-22.3,0.00,North,11,0.0,0.0,35,0.00,,,0.00,VWS V13.01,2013-02-21 07:40:00,
2013-02-21 01:45:00,-1.5,-22.5,0.00,North,11,0.0,0.0,35,0.00,,,0.00,VWS V13.01,2013-02-21 07:45:00,
2013-02-21 01:50:00,-1.7,-22.6,0.00,North,11,0.0,0.0,35,0.00,,,0.00,VWS V13.01,2013-02-21 07:50:00,
2013-02-21 01:55:00,-1.8,-22.8,0.00,North,11,0.0,0.0,35,0.00,,,0.00,VWS V13.01,2013-02-21 07:55:00,
2013-02-21 02:00:00,-1.8,-22.8,0.00,North,10,0.0,0.0,35,0.00,,,0.00,VWS V13.01,2013-02-21 08:00:00,
2013-02-21 02:05:00,-2.4,-23.3,0.00,North,11,0.0,0.0,35,0.00,,,0.00,VWS V13.01,2013-02-21 08:05:00,
2013-02-21 02:10:00,-2.6,-23.4,0.00,North,11,0.0,0.0,35,0.00,,,0.00,VWS V13.01,2013-02-21 08:10:00,
2013-02-21 02:15:00,-2.4,-23.3,0.00,North,11,0.0,0.0,35,0.00,,,0.00,VWS V13.01,2013-02-21 08:15:00,
2013-02-21 02:20:00,-2.7,-23.6,0.00,North,11,0.0,0.0,35,0.00,,,0.00,VWS V13.01,2013-02-21 08:20:00,
2013-02-21 02:25:00,-3.1,-23.9,0.00,North,11,0.0,0.0,35,0.00,,,0.00,VWS V13.01,2013-02-21 08:25:00,
2013-02-21 02:30:00,-1.8,-22.8,0.00,NE,54,0.0,3.6,35,0.00,,,0.00,VWS V13.01,2013-02-21 08:30:00,
2013-02-21 02:35:00,0.0,-21.2,0.00,NE,40,3.1,3.1,35,0.00,,,0.00,VWS V13.01,2013-02-21 08:35:00,
2013-02-21 02:40:00,1.2,-20.0,0.00,NE,34,0.0,0.0,35,0.00,,,0.00,VWS V13.01,2013-02-21 08:40:00,
2013-02-21 02:45:00,1.8,-19.6,0.00,NNE,32,0.0,0.0,35,0.00,,,0.00,VWS V13.01,2013-02-21 08:45:00,
2013-02-21 02:50:00,2.1,-19.2,0.00,North,9,0.0,0.0,35,0.00,,,0.00,VWS V13.01,2013-02-21 08:50:00,
2013-02-21 02:55:00,2.1,-19.2,0.00,NNE,15,0.0,0.0,35,0.00,,,0.00,VWS V13.01,2013-02-21 08:55:00,
2013-02-21 03:00:00,2.3,-19.1,0.00,NNE,16,3.1,3.6,35,0.00,,,0.00,VWS V13.01,2013-02-21 09:00:00,
2013-02-21 03:05:00,1.9,-19.4,0.00,North,0,0.0,0.0,35,0.00,,,0.00,VWS V13.01,2013-02-21 09:05:00,
2013-02-21 03:10:00,1.9,-19.4,0.00,NW,323,0.0,0.0,35,0.00,,,0.00,VWS V13.01,2013-02-21 09:10:00,
2013-02-21 03:15:00,2.1,-19.2,0.00,NNW,339,0.0,0.0,35,0.00,,,0.00,VWS V13.01,2013-02-21 09:15:00,
2013-02-21 03:20:00,1.9,-19.4,0.00,NW,322,0.0,0.0,35,0.00,,,0.00,VWS V13.01,2013-02-21 09:20:00,
2013-02-21 03:25:00,1.8,-19.6,0.00,NW,322,0.0,0.0,35,0.00,,,0.00,VWS V13.01,2013-02-21 09:25:00,
2013-02-21 03:30:00,1.0,-20.2,0.00,NW,322,0.0,0.0,35,0.00,,,0.00,VWS V13.01,2013-02-21 09:30:00,
2013-02-21 03:35:00,0.3,-20.9,0.00,NW,322,0.0,0.0,35,0.00,,,0.00,VWS V13.01,2013-02-21 09:35:00,
2013-02-21 03:40:00,-1.3,-22.3,0.00,NW,322,0.0,0.0,35,0.00,,,0.00,VWS V13.01,2013-02-21 09:40:00,
2013-02-21 03:45:00,-2.2,-23.1,0.00,NW,322,0.0,0.0,35,0.00,,,0.00,VWS V13.01,2013-02-21 09:45:00,
2013-02-21 03:50:00,-2.7,-23.6,0.00,NW,322,0.0,0.0,35,0.00,,,0.00,VWS V13.01,2013-02-21 09:50:00,
2013-02-21 03:55:00,-3.1,-23.9,0.00,NW,322,0.0,0.0,35,0.00,,,0.00,VWS V13.01,2013-02-21 09:55:00,
2013-02-21 04:00:00,-3.1,-23.9,0.00,NW,322,0.0,0.0,35,0.00,,,0.00,VWS V13.01,2013-02-21 10:00:00,
2013-02-21 04:05:00,-3.1,-23.9,0.00,NW,322,0.0,0.0,35,0.00,,,0.00,VWS V13.01,2013-02-21 10:05:00,
2013-02-21 04:10:00,-3.6,-24.4,0.00,NW,322,0.0,0.0,35,0.00,,,0.00,VWS V13.01,2013-02-21 10:10:00,
2013-02-21 04:15:00,-4.2,-24.9,0.00,NW,322,0.0,0.0,35,0.00,,,0.00,VWS V13.01,2013-02-21 10:15:00,
2013-02-21 04:20:00,-4.5,-25.2,0.00,NW,322,0.0,0.0,35,0.00,,,0.00,VWS V13.01,2013-02-21 10:20:00,
2013-02-21 04:25:00,-4.7,-25.4,0.00,NW,322,0.0,0.0,35,0.00,,,0.00,VWS V13.01,2013-02-21 10:25:00,
2013-02-21 04:30:00,-4.7,-25.4,0.00,NW,322,0.0,0.0,35,0.00,,,0.00,VWS V13.01,2013-02-21 10:30:00,
2013-02-21 04:35:00,-4.5,-25.2,0.00,NW,322,0.0,0.0,35,0.00,,,0.00,VWS V13.01,2013-02-21 10:35:00,
2013-02-21 04:40:00,-4.4,-25.1,0.00,NW,322,0.0,0.0,35,0.00,,,0.00,VWS V13.01,2013-02-21 10:40:00,
2013-02-21 04:45:00,-4.4,-25.1,0.00,NW,322,0.0,0.0,35,0.00,,,0.00,VWS V13.01,2013-02-21 10:45:00,
2013-02-21 04:50:00,-4.4,-25.1,0.00,NW,322,0.0,0.0,35,0.00,,,0.00,VWS V13.01,2013-02-21 10:50:00,
2013-02-21 04:55:00,-4.7,-25.4,0.00,NW,322,0.0,0.0,35,0.00,,,0.00,VWS V13.01,2013-02-21 10:55:00,
2013-02-21 05:00:00,-5.4,-26.0,0.00,NW,322,0.0,0.0,35,0.00,,,0.00,VWS V13.01,2013-02-21 11:00:00,
2013-02-21 05:05:00,-6.3,-26.8,0.00,NW,322,0.0,0.0,35,0.00,,,0.00,VWS V13.01,2013-02-21 11:05:00,
2013-02-21 05:10:00,-6.7,-27.2,0.00,NW,322,0.0,0.0,35,0.00,,,0.00,VWS V13.01,2013-02-21 11:10:00,
2013-02-21 05:15:00,-7.1,-27.5,0.00,NW,322,0.0,0.0,35,0.00,,,0.00,VWS V13.01,2013-02-21 11:15:00,
2013-02-21 05:20:00,-7.2,-27.6,0.00,NW,322,0.0,0.0,35,0.00,,,0.00,VWS V13.01,2013-02-21 11:20:00,
2013-02-21 05:25:00,-7.2,-27.6,0.00,NW,322,0.0,0.0,35,0.00,,,0.00,VWS V13.01,2013-02-21 11:25:00,
2013-02-21 05:30:00,-7.1,-27.5,0.00,NW,322,0.0,0.0,35,0.00,,,0.00,VWS V13.01,2013-02-21 11:30:00,
2013-02-21 05:35:00,-7.1,-27.5,0.00,NW,322,0.0,0.0,35,0.00,,,0.00,VWS V13.01,2013-02-21 11:35:00,
2013-02-21 05:40:00,-7.1,-27.5,0.00,NW,322,0.0,0.0,35,0.00,,,0.00,VWS V13.01,2013-02-21 11:40:00,
2013-02-21 05:45:00,-7.1,-27.5,0.00,NW,322,0.0,0.0,35,0.00,,,0.00,VWS V13.01,2013-02-21 11:45:00,
2013-02-21 05:50:00,-7.8,-28.1,0.00,NW,322,0.0,0.0,35,0.00,,,0.00,VWS V13.01,2013-02-21 11:50:00,
2013-02-21 05:55:00,-7.6,-28.0,0.00,NW,322,0.0,0.0,35,0.00,,,0.00,VWS V13.01,2013-02-21 11:55:00,
2013-02-21 06:00:00,-7.6,-28.0,0.00,NW,322,0.0,0.0,35,0.00,,,0.00,VWS V13.01,2013-02-21 12:00:00,
2013-02-21 06:05:00,-8.0,-28.3,0.00,NW,322,0.0,0.0,35,0.00,,,0.00,VWS V13.01,2013-02-21 12:05:00,
2013-02-21 06:10:00,-7.6,-28.0,0.00,NW,322,0.0,0.0,35,0.00,,,0.00,VWS V13.01,2013-02-21 12:10:00,
2013-02-21 06:15:00,-5.8,-26.4,0.00,NNW,330,0.0,0.0,35,0.00,,,0.00,VWS V13.01,2013-02-21 12:15:00,
2013-02-21 06:20:00,-3.8,-24.6,0.00,NNW,327,0.0,0.0,35,0.00,,,0.00,VWS V13.01,2013-02-21 12:20:00,
2013-02-21 06:25:00,-2.6,-23.4,0.00,NE,52,0.0,0.0,35,0.00,,,0.00,VWS V13.01,2013-02-21 12:25:00,
2013-02-21 06:30:00,-2.2,-23.1,0.00,NNE,31,0.0,2.2,35,0.00,,,0.00,VWS V13.01,2013-02-21 12:30:00,
2013-02-21 06:35:00,-2.2,-23.1,0.00,North,0,0.0,3.1,35,0.00,,,0.00,VWS V13.01,2013-02-21 12:35:00,
2013-02-21 06:40:00,-2.2,-23.1,0.00,NE,39,0.0,0.0,35,0.00,,,0.00,VWS V13.01,2013-02-21 12:40:00,
2013-02-21 06:45:00,-2.2,-23.1,0.00,NE,40,0.0,0.0,35,0.00,,,0.00,VWS V13.01,2013-02-21 12:45:00,
2013-02-21 06:50:00,-2.2,-23.1,0.00,NE,36,2.2,2.7,35,0.00,,,0.00,VWS V13.01,2013-02-21 12:50:00,
2013-02-21 06:55:00,-2.2,-23.1,0.00,North,3,0.0,0.0,35,0.00,,,0.00,VWS V13.01,2013-02-21 12:55:00,
2013-02-21 07:00:00,-2.0,-23.0,0.00,NE,46,0.0,2.7,35,0.00,,,0.00,VWS V13.01,2013-02-21 13:00:00,
2013-02-21 07:05:00,-2.0,-23.0,0.00,NE,52,0.0,0.0,35,0.00,,,0.00,VWS V13.01,2013-02-21 13:05:00,
2013-02-21 07:10:00,-1.8,-22.8,0.00,North,357,0.0,0.0,35,0.00,,,0.00,VWS V13.01,2013-02-21 13:10:00,
2013-02-21 07:15:00,-1.1,-22.1,0.00,NNW,339,2.7,2.7,35,0.00,,,0.00,VWS V13.01,2013-02-21 13:15:00,
2013-02-21 07:20:00,-0.8,-21.8,0.00,North,9,0.0,0.0,35,0.00,,,0.00,VWS V13.01,2013-02-21 13:20:00,
2013-02-21 07:25:00,0.0,-21.2,0.00,NE,56,0.0,0.0,35,0.00,,,0.00,VWS V13.01,2013-02-21 13:25:00,
2013-02-21 07:30:00,0.3,-20.9,0.00,NNE,13,0.0,0.0,35,0.00,,,0.00,VWS V13.01,2013-02-21 13:30:00,
2013-02-21 07:35:00,0.9,-20.4,0.00,South,191,0.0,0.0,35,0.00,,,0.00,VWS V13.01,2013-02-21 13:35:00,
2013-02-21 07:40:00,1.0,-20.2,0.00,South,184,2.7,2.7,35,0.00,,,0.00,VWS V13.01,2013-02-21 13:40:00,
2013-02-21 07:45:00,1.6,-19.7,0.00,SSW,192,2.7,2.7,35,0.00,,,0.00,VWS V13.01,2013-02-21 13:45:00,
2013-02-21 07:50:00,1.8,-19.6,0.00,South,181,0.0,0.0,35,0.00,,,0.00,VWS V13.01,2013-02-21 13:50:00,
2013-02-21 07:55:00,1.6,-19.7,0.00,South,181,0.0,0.0,35,0.00,,,0.00,VWS V13.01,2013-02-21 13:55:00,
2013-02-21 08:00:00,1.0,-20.2,0.00,South,181,0.0,0.0,35,0.00,,,0.00,VWS V13.01,2013-02-21 14:00:00,
2013-02-21 08:05:00,1.2,-20.0,0.00,South,181,0.0,0.0,35,0.00,,,0.00,VWS V13.01,2013-02-21 14:05:00,
2013-02-21 08:10:00,1.9,-19.4,0.00,South,181,0.0,0.0,35,0.00,,,0.00,VWS V13.01,2013-02-21 14:10:00,
2013-02-21 08:15:00,2.8,-18.6,0.00,South,181,0.0,0.0,35,0.00,,,0.00,VWS V13.01,2013-02-21 14:15:00,
2013-02-21 08:20:00,3.2,-18.3,0.00,South,181,0.0,0.0,35,0.00,,,0.00,VWS V13.01,2013-02-21 14:20:00,
2013-02-21 08:25:00,3.4,-18.1,0.00,SSE,162,0.0,0.0,35,0.00,,,0.00,VWS V13.01,2013-02-21 14:25:00,
2013-02-21 08:30:00,4.3,-17.3,0.00,NE,38,0.0,0.0,35,0.00,,,0.00,VWS V13.01,2013-02-21 14:30:00,
2013-02-21 08:35:00,5.0,-16.7,0.00,NE,45,0.0,0.0,35,0.00,,,0.00,VWS V13.01,2013-02-21 14:35:00,
2013-02-21 08:40:00,5.7,-16.0,0.00,North,0,0.0,0.0,35,0.00,,,0.00,VWS V13.01,2013-02-21 14:40:00,
2013-02-21 08:45:00,5.9,-15.9,0.00,NE,47,0.0,2.2,35,0.00,,,0.00,VWS V13.01,2013-02-21 14:45:00,
2013-02-21 08:50:00,6.4,-15.4,0.00,NE,54,0.0,0.0,35,0.00,,,0.00,VWS V13.01,2013-02-21 14:50:00,
2013-02-21 08:55:00,6.6,-15.2,0.00,NNE,12,0.0,0.0,35,0.00,,,0.00,VWS V13.01,2013-02-21 14:55:00,
2013-02-21 09:00:00,6.4,-15.4,0.00,North,8,0.0,0.0,35,0.00,,,0.00,VWS V13.01,2013-02-21 15:00:00,
2013-02-21 09:05:00,6.8,-15.1,0.00,NNW,338,0.0,2.7,35,0.00,,,0.00,VWS V13.01,2013-02-21 15:05:00,
2013-02-21 09:10:00,7.2,-14.7,0.00,NE,53,2.7,3.6,35,0.00,,,0.00,VWS V13.01,2013-02-21 15:10:00,
2013-02-21 09:15:00,7.0,-14.9,0.00,ENE,62,0.0,2.7,35,0.00,,,0.00,VWS V13.01,2013-02-21 15:15:00,
2013-02-21 09:20:00,7.2,-14.7,0.00,East,95,2.7,2.7,35,0.00,,,0.00,VWS V13.01,2013-02-21 15:20:00,
2013-02-21 09:25:00,7.5,-14.4,0.00,NE,52,3.1,4.0,35,0.00,,,0.00,VWS V13.01,2013-02-21 15:25:00,
2013-02-21 09:30:00,7.5,-14.4,0.00,North,5,4.9,4.9,35,0.00,,,0.00,VWS V13.01,2013-02-21 15:30:00,
2013-02-21 09:35:00,7.9,-14.1,0.00,NE,44,0.0,2.7,35,0.00,,,0.00,VWS V13.01,2013-02-21 15:35:00,
2013-02-21 09:40:00,8.4,-13.6,0.00,ESE,106,4.0,4.0,35,0.00,,,0.00,VWS V13.01,2013-02-21 15:40:00,
2013-02-21 09:45:00,8.8,-13.3,0.00,NNE,28,2.7,5.4,35,0.00,,,0.00,VWS V13.01,2013-02-21 15:45:00,
2013-02-21 09:50:00,9.1,-12.9,0.00,ENE,61,3.1,3.1,35,0.00,,,0.00,VWS V13.01,2013-02-21 15:50:00,
2013-02-21 09:55:00,9.1,-12.9,0.00,North,0,2.7,2.7,35,0.00,,,0.00,VWS V13.01,2013-02-21 15:55:00,
2013-02-21 10:00:00,9.3,-12.8,0.00,NE,39,2.7,2.7,35,0.00,,,0.00,VWS V13.01,2013-02-21 16:00:00,
2013-02-21 10:05:00,9.5,-12.6,0.00,NE,47,5.4,5.8,35,0.00,,,0.00,VWS V13.01,2013-02-21 16:05:00,
2013-02-21 10:10:00,9.7,-12.5,0.00,NE,52,3.1,3.6,35,0.00,,,0.00,VWS V13.01,2013-02-21 16:10:00,
2013-02-21 10:15:00,10.2,-12.0,0.00,NE,51,4.0,5.4,35,0.00,,,0.00,VWS V13.01,2013-02-21 16:15:00,
2013-02-21 10:20:00,10.8,-11.5,0.00,NNE,22,4.9,5.4,35,0.00,,,0.00,VWS V13.01,2013-02-21 16:20:00,
2013-02-21 10:25:00,11.1,-11.2,0.00,NNE,24,2.2,5.8,35,0.00,,,0.00,VWS V13.01,2013-02-21 16:25:00,
2013-02-21 10:30:00,12.2,-10.2,0.00,NNE,13,3.6,5.4,35,0.00,,,0.00,VWS V13.01,2013-02-21 16:30:00,
2013-02-21 10:35:00,12.6,-9.9,0.00,NNE,20,3.1,3.1,35,0.00,,,0.00,VWS V13.01,2013-02-21 16:35:00,
2013-02-21 10:40:00,13.1,-9.4,0.00,NE,56,2.2,3.6,35,0.00,,,0.00,VWS V13.01,2013-02-21 16:40:00,
2013-02-21 10:45:00,13.3,-9.2,0.00,ESE,108,5.4,5.4,35,0.00,,,0.00,VWS V13.01,2013-02-21 16:45:00,
2013-02-21 10:50:00,13.3,-9.2,0.00,East,86,0.0,4.0,35,0.00,,,0.00,VWS V13.01,2013-02-21 16:50:00,
2013-02-21 10:55:00,13.5,-9.1,0.00,ESE,105,4.0,4.9,35,0.00,,,0.00,VWS V13.01,2013-02-21 16:55:00,
2013-02-21 11:00:00,13.5,-9.1,0.00,ENE,73,3.6,4.9,35,0.00,,,0.00,VWS V13.01,2013-02-21 17:00:00,
2013-02-21 11:05:00,13.5,-9.1,0.00,ESE,110,4.9,4.9,35,0.00,,,0.00,VWS V13.01,2013-02-21 17:05:00,
2013-02-21 11:10:00,12.9,-9.6,0.00,ENE,68,3.6,3.6,35,0.00,,,0.00,VWS V13.01,2013-02-21 17:10:00,
2013-02-21 11:15:00,13.5,-9.1,0.00,NE,52,4.0,4.0,35,0.00,,,0.00,VWS V13.01,2013-02-21 17:15:00,
2013-02-21 11:20:00,14.0,-8.0,0.00,North,0,3.1,5.8,36,0.00,,,0.00,VWS V13.01,2013-02-21 17:20:00,
2013-02-21 11:25:00,14.4,-7.7,0.00,ENE,64,2.7,3.6,36,0.00,,,0.00,VWS V13.01,2013-02-21 17:25:00,
2013-02-21 11:30:00,14.2,-8.4,0.00,NE,48,5.4,5.4,35,0.00,,,0.00,VWS V13.01,2013-02-21 17:30:00,
2013-02-21 11:35:00,13.6,-8.9,0.00,ENE,58,5.4,5.4,35,0.00,,,0.00,VWS V13.01,2013-02-21 17:35:00,
2013-02-21 11:40:00,14.4,-8.3,0.00,East,79,2.2,4.0,35,0.00,,,0.00,VWS V13.01,2013-02-21 17:40:00,
2013-02-21 11:45:00,14.9,-7.8,0.00,ESE,105,5.4,6.3,35,0.00,,,0.00,VWS V13.01,2013-02-21 17:45:00,
2013-02-21 11:50:00,14.2,-8.4,0.00,ESE,106,7.6,7.6,35,0.00,,,0.00,VWS V13.01,2013-02-21 17:50:00,
2013-02-21 11:55:00,14.2,-8.4,0.00,ENE,69,5.4,5.8,35,0.00,,,0.00,VWS V13.01,2013-02-21 17:55:00,
2013-02-21 12:00:00,14.5,-8.1,0.00,East,101,6.3,6.3,35,0.00,,,0.00,VWS V13.01,2013-02-21 18:00:00,
2013-02-21 12:05:00,15.1,-7.6,0.00,NE,50,4.9,5.8,35,0.00,,,0.00,VWS V13.01,2013-02-21 18:05:00,
2013-02-21 12:10:00,15.4,-7.3,0.00,ENE,57,3.1,3.1,35,0.00,,,0.00,VWS V13.01,2013-02-21 18:10:00,
2013-02-21 12:15:00,15.8,-7.0,0.00,NE,44,3.1,3.1,35,0.00,,,0.00,VWS V13.01,2013-02-21 18:15:00,
2013-02-21 12:20:00,16.2,-6.7,0.00,ENE,73,4.0,5.4,35,0.00,,,0.00,VWS V13.01,2013-02-21 18:20:00,
2013-02-21 12:25:00,16.2,-6.7,0.00,East,85,2.7,2.7,35,0.00,,,0.00,VWS V13.01,2013-02-21 18:25:00,
2013-02-21 12:30:00,16.7,-6.2,0.00,ESE,105,4.0,4.0,35,0.00,,,0.00,VWS V13.01,2013-02-21 18:30:00,
2013-02-21 12:35:00,16.7,-6.2,0.00,NE,48,5.8,5.8,35,0.00,,,0.00,VWS V13.01,2013-02-21 18:35:00,
2013-02-21 12:40:00,16.9,-6.0,0.00,NNE,17,3.6,4.5,35,0.00,,,0.00,VWS V13.01,2013-02-21 18:40:00,
2013-02-21 12:45:00,17.1,-5.9,0.00,NE,56,2.2,2.7,35,0.00,,,0.00,VWS V13.01,2013-02-21 18:45:00,
2013-02-21 12:50:00,17.6,-5.4,0.00,ESE,118,2.7,4.9,35,0.00,,,0.00,VWS V13.01,2013-02-21 18:50:00,
2013-02-21 12:55:00,17.4,-6.1,0.00,North,357,3.1,3.1,34,0.00,,,0.00,VWS V13.01,2013-02-21 18:55:00,
2013-02-21 13:00:00,17.2,-6.3,0.00,ENE,72,6.3,6.3,34,0.00,,,0.00,VWS V13.01,2013-02-21 19:00:00,
2013-02-21 13:05:00,17.4,-5.5,0.00,NE,42,4.9,4.9,35,0.00,,,0.00,VWS V13.01,2013-02-21 19:05:00,
2013-02-21 13:10:00,17.4,-6.1,0.00,North,353,7.6,7.6,34,0.00,,,0.00,VWS V13.01,2013-02-21 19:10:00,
2013-02-21 13:15:00,17.6,-6.0,0.00,ENE,76,3.1,5.4,34,0.00,,,0.00,VWS V13.01,2013-02-21 19:15:00,
2013-02-21 13:20:00,17.8,-5.8,0.00,ENE,68,2.7,6.3,34,0.00,,,0.00,VWS V13.01,2013-02-21 19:20:00,
2013-02-21 13:25:00,18.0,-5.7,0.00,NE,50,5.4,5.4,34,0.00,,,0.00,VWS V13.01,2013-02-21 19:25:00,
2013-02-21 13:30:00,18.1,-5.5,0.00,NE,53,4.0,4.0,34,0.00,,,0.00,VWS V13.01,2013-02-21 19:30:00,
2013-02-21 13:35:00,18.3,-5.3,0.00,NE,56,4.0,4.0,34,0.00,,,0.00,VWS V13.01,2013-02-21 19:35:00,
2013-02-21 13:40:00,18.5,-5.2,0.00,NE,51,5.4,5.4,34,0.00,,,0.00,VWS V13.01,2013-02-21 19:40:00,
2013-02-21 13:45:00,18.7,-5.0,0.00,NE,41,5.4,5.4,34,0.00,,,0.00,VWS V13.01,2013-02-21 19:45:00,
2013-02-21 13:50:00,19.0,-4.7,0.00,ENE,67,3.1,3.1,34,0.00,,,0.00,VWS V13.01,2013-02-21 19:50:00,
2013-02-21 13:55:00,19.2,-4.5,0.00,NNE,28,3.1,3.6,34,0.00,,,0.00,VWS V13.01,2013-02-21 19:55:00,
2013-02-21 14:00:00,19.4,-4.4,0.00,NE,44,4.9,4.9,34,0.00,,,0.00,VWS V13.01,2013-02-21 20:00:00,
2013-02-21 14:05:00,19.8,-4.1,0.00,East,81,0.0,0.0,34,0.00,,,0.00,VWS V13.01,2013-02-21 20:05:00,
2013-02-21 14:10:00,19.9,-3.9,0.00,NE,47,3.1,4.0,34,0.00,,,0.00,VWS V13.01,2013-02-21 20:10:00,
2013-02-21 14:15:00,20.1,-3.7,0.00,NE,51,3.1,3.6,34,0.00,,,0.00,VWS V13.01,2013-02-21 20:15:00,
2013-02-21 14:20:00,20.5,-3.4,0.00,NNE,28,5.4,5.4,34,0.00,,,0.00,VWS V13.01,2013-02-21 20:20:00,
2013-02-21 14:25:00,20.7,-3.3,0.00,NE,41,0.0,2.7,34,0.00,,,0.00,VWS V13.01,2013-02-21 20:25:00,
2013-02-21 14:30:00,20.8,-3.1,0.00,NNE,20,4.9,5.4,34,0.00,,,0.00,VWS V13.01,2013-02-21 20:30:00,
2013-02-21 14:35:00,21.2,-2.8,0.00,NE,53,2.7,3.1,34,0.00,,,0.00,VWS V13.01,2013-02-21 20:35:00,
2013-02-21 14:40:00,21.6,-3.1,0.00,NE,41,3.6,3.6,33,0.00,,,0.00,VWS V13.01,2013-02-21 20:40:00,
2013-02-21 14:45:00,21.7,-2.9,0.00,ESE,106,2.7,2.7,33,0.00,,,0.00,VWS V13.01,2013-02-21 20:45:00,
2013-02-21 14:50:00,21.9,-2.8,0.00,NE,56,3.1,3.1,33,0.00,,,0.00,VWS V13.01,2013-02-21 20:50:00,
2013-02-21 14:55:00,22.3,-2.4,0.00,East,88,5.4,5.4,33,0.00,,,0.00,VWS V13.01,2013-02-21 20:55:00,
2013-02-21 15:00:00,22.6,-2.1,0.00,ESE,110,8.3,8.3,33,0.00,,,0.00,VWS V13.01,2013-02-21 21:00:00,
2013-02-21 15:05:00,22.8,-2.0,0.00,ENE,65,0.0,0.0,33,0.00,,,0.00,VWS V13.01,2013-02-21 21:05:00,
2013-02-21 15:10:00,23.0,-1.8,0.00,NE,51,3.1,6.3,33,0.00,,,0.00,VWS V13.01,2013-02-21 21:10:00,
2013-02-21 15:15:00,23.0,-1.8,0.00,ESE,104,6.3,6.3,33,0.00,,,0.00,VWS V13.01,2013-02-21 21:15:00,
2013-02-21 15:20:00,22.8,-2.0,0.00,ESE,102,5.8,5.8,33,0.00,,,0.00,VWS V13.01,2013-02-21 21:20:00,
2013-02-21 15:25:00,23.0,-1.8,0.00,ESE,104,5.8,5.8,33,0.00,,,0.00,VWS V13.01,2013-02-21 21:25:00,
2013-02-21 15:30:00,23.2,-1.6,0.00,East,83,3.1,3.1,33,0.00,,,0.00,VWS V13.01,2013-02-21 21:30:00,
2013-02-21 15:35:00,23.5,-1.3,0.00,ESE,102,4.0,4.0,33,0.00,,,0.00,VWS V13.01,2013-02-21 21:35:00,
2013-02-21 15:40:00,23.7,-1.2,0.00,ESE,103,3.1,3.6,33,0.00,,,0.00,VWS V13.01,2013-02-21 21:40:00,
2013-02-21 15:45:00,23.9,-1.0,0.00,ESE,108,0.0,0.0,33,0.00,,,0.00,VWS V13.01,2013-02-21 21:45:00,
2013-02-21 15:50:00,23.9,-1.0,0.00,ESE,104,4.9,4.9,33,0.00,,,0.00,VWS V13.01,2013-02-21 21:50:00,
2013-02-21 15:55:00,23.9,-1.0,0.00,ESE,115,4.0,4.0,33,0.00,,,0.00,VWS V13.01,2013-02-21 21:55:00,
2013-02-21 16:00:00,23.7,-1.2,0.00,ESE,104,2.7,3.6,33,0.00,,,0.00,VWS V13.01,2013-02-21 22:00:00,
2013-02-21 16:05:00,23.9,-1.0,0.00,ESE,107,5.4,5.4,33,0.00,,,0.00,VWS V13.01,2013-02-21 22:05:00,
2013-02-21 16:10:00,24.1,-0.9,0.00,ESE,103,4.9,4.9,33,0.00,,,0.00,VWS V13.01,2013-02-21 22:10:00,
2013-02-21 16:15:00,24.3,-0.7,0.00,ENE,64,2.2,3.6,33,0.00,,,0.00,VWS V13.01,2013-02-21 22:15:00,
2013-02-21 16:20:00,24.4,-0.5,0.00,East,99,2.7,3.6,33,0.00,,,0.00,VWS V13.01,2013-02-21 22:20:00,
2013-02-21 16:25:00,24.4,-0.5,0.00,ESE,102,4.9,5.4,33,0.00,,,0.00,VWS V13.01,2013-02-21 22:25:00,
2013-02-21 16:30:00,24.3,-0.7,0.00,ESE,104,2.7,4.0,33,0.00,,,0.00,VWS V13.01,2013-02-21 22:30:00,
2013-02-21 16:35:00,24.4,-0.5,0.00,East,99,3.6,3.6,33,0.00,,,0.00,VWS V13.01,2013-02-21 22:35:00,
2013-02-21 16:40:00,24.6,-0.4,0.00,East,98,0.0,0.0,33,0.00,,,0.00,VWS V13.01,2013-02-21 22:40:00,
2013-02-21 16:45:00,24.6,-0.4,0.00,ESE,105,0.0,0.0,33,0.00,,,0.00,VWS V13.01,2013-02-21 22:45:00,
2013-02-21 16:50:00,24.6,-0.4,0.00,ESE,105,3.6,3.6,33,0.00,,,0.00,VWS V13.01,2013-02-21 22:50:00,
2013-02-21 16:55:00,24.6,-0.4,0.00,ESE,105,0.0,0.0,33,0.00,,,0.00,VWS V13.01,2013-02-21 22:55:00,
2013-02-21 17:00:00,24.4,-0.5,0.00,ESE,105,2.7,2.7,33,0.00,,,0.00,VWS V13.01,2013-02-21 23:00:00,
2013-02-21 17:05:00,24.4,-0.5,0.00,ESE,105,0.0,0.0,33,0.00,,,0.00,VWS V13.01,2013-02-21 23:05:00,
2013-02-21 17:10:00,24.6,-0.4,0.00,ESE,105,0.0,0.0,33,0.00,,,0.00,VWS V13.01,2013-02-21 23:10:00,
2013-02-21 17:15:00,24.6,-0.4,0.00,ESE,105,0.0,0.0,33,0.00,,,0.00,VWS V13.01,2013-02-21 23:15:00,
2013-02-21 17:20:00,24.8,-0.2,0.00,ESE,105,0.0,0.0,33,0.00,,,0.00,VWS V13.01,2013-02-21 23:20:00,
2013-02-21 17:25:00,24.6,-0.4,0.00,ESE,105,0.0,0.0,33,0.00,,,0.00,VWS V13.01,2013-02-21 23:25:00,
2013-02-21 17:30:00,24.6,-0.4,0.00,ESE,105,0.0,0.0,33,0.00,,,0.00,VWS V13.01,2013-02-21 23:30:00,
2013-02-21 17:35:00,24.4,-0.5,0.00,ESE,105,0.0,0.0,33,0.00,,,0.00,VWS V13.01,2013-02-21 23:35:00,
2013-02-21 17:40:00,24.4,-0.5,0.00,ESE,105,0.0,0.0,33,0.00,,,0.00,VWS V13.01,2013-02-21 23:40:00,
2013-02-21 17:45:00,24.4,-0.5,0.00,ESE,105,0.0,0.0,33,0.00,,,0.00,VWS V13.01,2013-02-21 23:45:00,
2013-02-21 17:50:00,24.3,-0.7,0.00,ESE,105,0.0,0.0,33,0.00,,,0.00,VWS V13.01,2013-02-21 23:50:00,
2013-02-21 17:55:00,24.3,-0.7,0.00,ESE,105,0.0,0.0,33,0.00,,,0.00,VWS V13.01,2013-02-21 23:55:00,
2013-02-21 18:00:00,24.1,-0.9,0.00,ESE,105,0.0,0.0,33,0.00,,,0.00,VWS V13.01,2013-02-22 00:00:00,
2013-02-21 18:05:00,24.1,-0.9,0.00,ESE,102,2.7,2.7,33,0.00,,,0.00,VWS V13.01,2013-02-22 00:05:00,
2013-02-21 18:10:00,23.9,-1.0,0.00,North,357,0.0,0.0,33,0.00,,,0.00,VWS V13.01,2013-02-22 00:10:00,
2013-02-21 18:15:00,23.9,-1.0,0.00,NNE,17,0.0,0.0,33,0.00,,,0.00,VWS V13.01,2013-02-22 00:15:00,
2013-02-21 18:20:00,23.9,-1.0,0.00,North,357,2.7,2.7,33,0.00,,,0.00,VWS V13.01,2013-02-22 00:20:00,
2013-02-21 18:25:00,23.9,-1.0,0.00,NE,46,3.1,3.1,33,0.00,,,0.00,VWS V13.01,2013-02-22 00:25:00,
2013-02-21 18:30:00,24.1,-0.9,0.00,NE,37,3.1,4.0,33,0.00,,,0.00,VWS V13.01,2013-02-22 00:30:00,
2013-02-21 18:35:00,24.1,-0.9,0.00,NE,37,2.7,2.7,33,0.00,,,0.00,VWS V13.01,2013-02-22 00:35:00,
2013-02-21 18:40:00,24.1,-0.9,0.00,NE,38,3.6,5.4,33,0.00,,,0.00,VWS V13.01,2013-02-22 00:40:00,
2013-02-21 18:45:00,24.3,-0.7,0.00,ENE,59,2.2,4.0,33,0.00,,,0.00,VWS V13.01,2013-02-22 00:45:00,
2013-02-21 18:50:00,24.4,-0.5,0.00,ENE,69,3.1,3.1,33,0.00,,,0.00,VWS V13.01,2013-02-22 00:50:00,
2013-02-21 18:55:00,24.4,-0.5,0.00,East,84,0.0,2.7,33,0.00,,,0.00,VWS V13.01,2013-02-22 00:55:00,
2013-02-21 19:00:00,24.6,-0.4,0.00,ESE,107,4.0,4.0,33,0.00,,,0.00,VWS V13.01,2013-02-22 01:00:00,
2013-02-21 19:05:00,24.6,-0.4,0.00,NE,43,6.3,6.3,33,0.00,,,0.00,VWS V13.01,2013-02-22 01:05:00,
2013-02-21 19:10:00,24.8,-0.2,0.00,East,93,3.6,3.6,33,0.00,,,0.00,VWS V13.01,2013-02-22 01:10:00,
2013-02-21 19:15:00,25.0,-0.7,0.00,ESE,111,3.6,3.6,32,0.00,,,0.00,VWS V13.01,2013-02-22 01:15:00,
2013-02-21 19:20:00,25.0,-0.7,0.00,East,80,5.4,5.8,32,0.00,,,0.00,VWS V13.01,2013-02-22 01:20:00,
2013-02-21 19:25:00,25.0,-0.7,0.00,East,92,3.1,4.0,32,0.00,,,0.00,VWS V13.01,2013-02-22 01:25:00,
2013-02-21 19:30:00,25.0,-0.7,0.00,ENE,66,3.1,3.6,32,0.00,,,0.00,VWS V13.01,2013-02-22 01:30:00,
2013-02-21 19:35:00,25.0,-0.7,0.00,East,86,0.0,2.2,32,0.00,,,0.00,VWS V13.01,2013-02-22 01:35:00,
2013-02-21 19:40:00,25.0,-0.7,0.00,ENE,73,2.7,2.7,32,0.00,,,0.00,VWS V13.01,2013-02-22 01:40:00,
2013-02-21 19:45:00,24.8,-0.2,0.00,ESE,109,2.7,2.7,33,0.00,,,0.00,VWS V13.01,2013-02-22 01:45:00,
2013-02-21 19:50:00,24.8,-0.2,0.00,ENE,57,3.6,3.6,33,0.00,,,0.00,VWS V13.01,2013-02-22 01:50:00,
2013-02-21 19:55:00,24.8,-0.2,0.00,ENE,58,4.0,4.0,33,0.00,,,0.00,VWS V13.01,2013-02-22 01:55:00,
2013-02-21 20:00:00,24.8,-0.2,0.00,NE,51,0.0,2.2,33,0.00,,,0.00,VWS V13.01,2013-02-22 02:00:00,
2013-02-21 20:05:00,24.8,-0.2,0.00,East,91,3.1,5.8,33,0.00,,,0.00,VWS V13.01,2013-02-22 02:05:00,
2013-02-21 20:10:00,24.8,-0.2,0.00,NE,49,2.2,4.9,33,0.00,,,0.00,VWS V13.01,2013-02-22 02:10:00,
2013-02-21 20:15:00,24.8,-0.2,0.00,North,11,3.1,4.9,33,0.00,,,0.00,VWS V13.01,2013-02-22 02:15:00,
2013-02-21 20:20:00,24.8,-0.2,0.00,NE,34,3.6,3.6,33,0.00,,,0.00,VWS V13.01,2013-02-22 02:20:00,
2013-02-21 20:25:00,24.8,-0.2,0.00,ENE,60,2.7,4.0,33,0.00,,,0.00,VWS V13.01,2013-02-22 02:25:00,
2013-02-21 20:30:00,24.8,-0.2,0.00,East,87,0.0,3.1,33,0.00,,,0.00,VWS V13.01,2013-02-22 02:30:00,
2013-02-21 20:35:00,24.8,0.4,0.00,NE,40,3.1,3.6,34,0.00,,,0.00,VWS V13.01,2013-02-22 02:35:00,
2013-02-21 20:40:00,24.8,0.4,0.00,ENE,74,4.0,5.4,34,0.00,,,0.00,VWS V13.01,2013-02-22 02:40:00,
2013-02-21 20:45:00,24.8,0.4,0.00,ENE,63,2.7,2.7,34,0.00,,,0.00,VWS V13.01,2013-02-22 02:45:00,
2013-02-21 20:50:00,24.6,0.3,0.00,NE,46,2.7,3.6,34,0.00,,,0.00,VWS V13.01,2013-02-22 02:50:00,
2013-02-21 20:55:00,24.6,0.3,0.00,NE,45,2.7,2.7,34,0.00,,,0.00,VWS V13.01,2013-02-22 02:55:00,
2013-02-21 21:00:00,24.6,0.3,0.00,ENE,65,0.0,3.1,34,0.00,,,0.00,VWS V13.01,2013-02-22 03:00:00,
2013-02-21 21:05:00,24.4,0.7,0.00,East,100,2.7,4.9,35,0.00,,,0.00,VWS V13.01,2013-02-22 03:05:00,
2013-02-21 21:10:00,24.4,0.7,0.00,NE,41,3.6,3.6,35,0.00,,,0.00,VWS V13.01,2013-02-22 03:10:00,
2013-02-21 21:15:00,24.4,0.7,0.00,ENE,67,3.1,3.6,35,0.00,,,0.00,VWS V13.01,2013-02-22 03:15:00,
2013-02-21 21:20:00,24.3,0.6,0.00,ENE,60,5.4,6.3,35,0.00,,,0.00,VWS V13.01,2013-02-22 03:20:00,
2013-02-21 21:25:00,24.3,0.6,0.00,NE,37,5.8,5.8,35,0.00,,,0.00,VWS V13.01,2013-02-22 03:25:00,
2013-02-21 21:30:00,24.1,1.0,0.00,NE,44,3.6,4.0,36,0.00,,,0.00,VWS V13.01,2013-02-22 03:30:00,
2013-02-21 21:35:00,24.1,1.0,0.00,North,11,4.9,5.8,36,0.00,,,0.00,VWS V13.01,2013-02-22 03:35:00,
2013-02-21 21:40:00,23.9,0.8,0.00,NNE,23,5.4,5.4,36,0.00,,,0.00,VWS V13.01,2013-02-22 03:40:00,
2013-02-21 21:45:00,23.9,0.8,0.00,East,87,3.6,5.4,36,0.00,,,0.00,VWS V13.01,2013-02-22 03:45:00,
2013-02-21 21:50:00,23.7,0.7,0.00,NNE,24,3.1,3.6,36,0.00,,,0.00,VWS V13.01,2013-02-22 03:50:00,
2013-02-21 21:55:00,23.7,1.3,0.00,ENE,58,0.0,4.0,37,0.00,,,0.00,VWS V13.01,2013-02-22 03:55:00,
2013-02-21 22:00:00,23.5,1.1,0.00,East,80,4.0,4.0,37,0.00,,,0.00,VWS V13.01,2013-02-22 04:00:00,
2013-02-21 22:05:00,23.5,1.1,0.00,NNE,27,3.6,4.0,37,0.00,,,0.00,VWS V13.01,2013-02-22 04:05:00,
2013-02-21 22:10:00,23.5,1.1,0.00,East,96,0.0,5.4,37,0.00,,,0.00,VWS V13.01,2013-02-22 04:10:00,
2013-02-21 22:15:00,23.4,1.5,0.00,NE,38,4.9,4.9,38,0.00,,,0.00,VWS V13.01,2013-02-22 04:15:00,
2013-02-21 22:20:00,23.4,1.5,0.00,North,353,2.7,4.0,38,0.00,,,0.00,VWS V13.01,2013-02-22 04:20:00,
2013-02-21 22:25:00,23.2,1.4,0.00,NE,46,2.7,5.4,38,0.00,,,0.00,VWS V13.01,2013-02-22 04:25:00,
2013-02-21 22:30:00,23.0,1.8,0.00,NE,36,5.8,5.8,39,0.00,,,0.00,VWS V13.01,2013-02-22 04:30:00,
2013-02-21 22:35:00,23.0,1.8,0.00,NE,46,5.4,5.4,39,0.00,,,0.00,VWS V13.01,2013-02-22 04:35:00,
2013-02-21 22:40:00,22.8,1.6,0.00,North,11,4.9,4.9,39,0.00,,,0.00,VWS V13.01,2013-02-22 04:40:00,
2013-02-21 22:45:00,22.8,2.1,0.00,NE,55,0.0,0.0,40,0.00,,,0.00,VWS V13.01,2013-02-22 04:45:00,
2013-02-21 22:50:00,22.6,2.0,0.00,ESE,107,3.1,3.1,40,0.00,,,0.00,VWS V13.01,2013-02-22 04:50:00,
2013-02-21 22:55:00,22.6,2.0,0.00,NNW,348,2.2,4.0,40,0.00,,,0.00,VWS V13.01,2013-02-22 04:55:00,
2013-02-21 23:00:00,22.5,1.8,0.00,ENE,64,5.8,8.3,40,0.00,,,0.00,VWS V13.01,2013-02-22 05:00:00,
2013-02-21 23:05:00,22.3,2.2,0.00,East,95,0.0,0.0,41,0.00,,,0.00,VWS V13.01,2013-02-22 05:05:00,
2013-02-21 23:10:00,22.3,2.2,0.00,NE,44,3.6,3.6,41,0.00,,,0.00,VWS V13.01,2013-02-22 05:10:00,
2013-02-21 23:15:00,22.1,2.5,0.00,NW,317,2.7,2.7,42,0.00,,,0.00,VWS V13.01,2013-02-22 05:15:00,
2013-02-21 23:20:00,22.1,2.5,0.00,ENE,69,2.7,3.1,42,0.00,,,0.00,VWS V13.01,2013-02-22 05:20:00,
2013-02-21 23:25:00,22.1,2.5,0.00,NE,43,4.0,4.0,42,0.00,,,0.00,VWS V13.01,2013-02-22 05:25:00,
2013-02-21 23:30:00,21.9,2.4,0.00,East,94,2.2,2.2,42,0.00,,,0.00,VWS V13.01,2013-02-22 05:30:00,
2013-02-21 23:35:00,21.9,2.4,0.00,East,97,2.7,3.1,42,0.00,,,0.00,VWS V13.01,2013-02-22 05:35:00,
2013-02-21 23:40:00,21.9,2.4,0.00,ENE,75,4.0,4.0,42,0.00,,,0.00,VWS V13.01,2013-02-22 05:40:00,
2013-02-21 23:45:00,21.9,2.4,0.00,ENE,62,6.3,6.3,42,0.00,,,0.00,VWS V13.01,2013-02-22 05:45:00,
2013-02-21 23:50:00,21.9,2.4,0.00,NE,56,2.2,2.7,42,0.00,,,0.00,VWS V13.01,2013-02-22 05:50:00,
2013-02-21 23:55:00,21.7,2.2,0.00,NE,49,3.1,3.1,42,0.00,,,0.00,VWS V13.01,2013-02-22 05:55:00,